Time,TemperatureF,DewpointF,PressureIn,WindDirection,WindDirectionDegrees,WindSpeedMPH,WindSpeedGustMPH,Humidity,HourlyPrecipIn,Conditions,Clouds,dailyrainin,SoftwareType,DateUTC
2013-04-09 00:02:00,24.0,24.0,-100.00,NNE,14,20.0,26.0,98,0.14,,,-99.99,,2013-04-09 00:02:00,
2013-04-09 00:12:00,24.0,24.0,-100.00,NNE,16,20.0,26.0,98,0.11,,,-99.99,,2013-04-09 00:12:00,
2013-04-09 00:22:00,-999.0,-99.9,-100.00,NNE,13,20.0,26.0,-999,-99.99,,,-99.99,,2013-04-09 00:22:00,
2013-04-09 00:32:00,23.0,23.0,-100.00,North,7,17.0,23.0,98,0.00,,,-99.99,,2013-04-09 00:32:00,
2013-04-09 00:42:00,23.0,22.0,-100.00,North,7,19.0,26.0,98,0.03,,,-99.99,,2013-04-09 00:42:00,
2013-04-09 00:52:00,23.0,22.0,-100.00,North,8,22.0,29.0,98,0.00,,,-99.99,,2013-04-09 00:52:00,
2013-04-09 01:02:00,22.0,22.0,-100.00,North,8,22.0,30.0,98,0.03,,,-99.99,,2013-04-09 01:02:00,
2013-04-09 01:12:00,22.0,21.0,-100.00,North,11,21.0,27.0,97,0.00,,,-99.99,,2013-04-09 01:12:00,
2013-04-09 01:22:00,22.0,21.0,-100.00,North,11,22.0,29.0,97,0.01,,,-99.99,,2013-04-09 01:22:00,
2013-04-09 01:33:00,21.0,21.0,-100.00,NNE,13,23.0,30.0,97,0.00,,,-99.99,,2013-04-09 01:33:00,
2013-04-09 01:42:00,21.0,20.0,-100.00,NNE,14,24.0,30.0,96,0.01,,,-99.99,,2013-04-09 01:42:00,
2013-04-09 01:52:00,21.0,20.0,-100.00,NNE,16,22.0,28.0,96,0.06,,,-99.99,,2013-04-09 01:52:00,
2013-04-09 02:02:00,20.0,20.0,-100.00,NNE,16,24.0,31.0,96,0.00,,,-99.99,,2013-04-09 02:02:00,
2013-04-09 02:12:00,20.0,19.0,-100.00,NNE,14,22.0,28.0,96,0.00,,,-99.99,,2013-04-09 02:12:00,
2013-04-09 02:22:00,20.0,19.0,-100.00,NNE,14,23.0,29.0,96,0.01,,,-99.99,,2013-04-09 02:22:00,
2013-04-09 02:32:00,20.0,19.0,-100.00,North,11,22.0,29.0,96,0.01,,,-99.99,,2013-04-09 02:32:00,
2013-04-09 02:42:00,20.0,18.0,-100.00,North,8,21.0,28.0,96,0.00,,,-99.99,,2013-04-09 02:42:00,
2013-04-09 02:52:00,19.0,18.0,-100.00,North,8,20.0,27.0,95,0.01,,,-99.99,,2013-04-09 02:52:00,
2013-04-09 03:02:00,19.0,18.0,-100.00,North,11,20.0,26.0,95,0.03,,,-99.99,,2013-04-09 03:02:00,
2013-04-09 03:12:00,18.0,17.0,-100.00,North,8,17.0,24.0,95,0.04,,,-99.99,,2013-04-09 03:12:00,
2013-04-09 03:22:00,-999.0,-99.9,-100.00,NNW,346,14.0,19.0,-999,-99.99,,,-99.99,,2013-04-09 03:22:00,
2013-04-09 03:33:00,16.0,14.0,-100.00,NNW,343,16.0,21.0,95,0.00,,,-99.99,,2013-04-09 03:33:00,
2013-04-09 03:52:00,14.0,13.0,-100.00,NNW,330,14.0,20.0,94,0.00,,,-99.99,,2013-04-09 03:52:00,
2013-04-09 04:02:00,14.0,12.0,-100.00,NNW,329,14.0,21.0,94,0.01,,,-99.99,,2013-04-09 04:02:00,
2013-04-09 04:13:00,13.0,12.0,-100.00,NNW,332,16.0,24.0,94,0.03,,,-99.99,,2013-04-09 04:13:00,
2013-04-09 04:23:00,13.0,12.0,-100.00,NNW,337,16.0,22.0,94,0.03,,,-99.99,,2013-04-09 04:23:00,
2013-04-09 04:32:00,13.0,11.0,-100.00,NNW,337,14.0,19.0,94,0.04,,,-99.99,,2013-04-09 04:32:00,
2013-04-09 04:42:00,13.0,11.0,-100.00,NNW,328,15.0,20.0,94,0.01,,,-99.99,,2013-04-09 04:42:00,
2013-04-09 04:52:00,13.0,11.0,-100.00,NNW,328,15.0,20.0,94,0.01,,,-99.99,,2013-04-09 04:52:00,
2013-04-09 05:02:00,12.0,11.0,-100.00,NNW,329,14.0,19.0,94,0.01,,,-99.99,,2013-04-09 05:02:00,
2013-04-09 05:12:00,12.0,10.0,-100.00,NNW,329,13.0,17.0,93,0.01,,,-99.99,,2013-04-09 05:12:00,
2013-04-09 05:22:00,12.0,10.0,-100.00,NW,319,13.0,18.0,93,0.03,,,-99.99,,2013-04-09 05:22:00,
2013-04-09 05:32:00,12.0,10.0,-100.00,NW,309,12.0,17.0,93,0.04,,,-99.99,,2013-04-09 05:32:00,
2013-04-09 05:42:00,12.0,10.0,-100.00,NW,320,14.0,22.0,93,0.03,,,-99.99,,2013-04-09 05:42:00,
2013-04-09 05:52:00,11.0,10.0,-100.00,NW,316,16.0,22.0,93,0.01,,,-99.99,,2013-04-09 05:52:00,
2013-04-09 06:02:00,-999.0,-99.9,-100.00,NW,313,14.0,21.0,-999,-99.99,,,-99.99,,2013-04-09 06:02:00,
2013-04-09 06:12:00,-999.0,-99.9,-100.00,NW,306,10.0,20.0,-999,-99.99,,,-99.99,,2013-04-09 06:12:00,
2013-04-09 06:22:00,10.0,8.0,-100.00,WNW,298,11.0,17.0,92,0.03,,,-99.99,,2013-04-09 06:22:00,
2013-04-09 06:32:00,9.0,7.0,-100.00,NW,304,13.0,21.0,91,0.06,,,-99.99,,2013-04-09 06:32:00,
2013-04-09 06:42:00,9.0,7.0,-100.00,NW,305,14.0,22.0,92,0.07,,,-99.99,,2013-04-09 06:42:00,
2013-04-09 06:52:00,9.0,7.0,-100.00,WNW,302,14.0,19.0,92,0.08,,,-99.99,,2013-04-09 06:52:00,
2013-04-09 07:02:00,9.0,7.0,-100.00,NW,311,14.0,19.0,92,0.08,,,-99.99,,2013-04-09 07:02:00,
2013-04-09 07:12:00,9.0,7.0,-100.00,NW,315,14.0,21.0,92,0.14,,,-99.99,,2013-04-09 07:12:00,
2013-04-09 07:22:00,8.0,6.0,-100.00,NW,326,17.0,22.0,91,0.07,,,-99.99,,2013-04-09 07:22:00,
2013-04-09 07:32:00,8.0,6.0,-100.00,NW,325,17.0,22.0,91,0.01,,,-99.99,,2013-04-09 07:32:00,
2013-04-09 07:52:00,6.0,4.0,-100.00,NW,311,15.0,21.0,90,0.03,,,-99.99,,2013-04-09 07:52:00,
2013-04-09 08:02:00,6.0,4.0,-100.00,NW,309,12.0,16.0,90,0.01,,,-99.99,,2013-04-09 08:02:00,
2013-04-09 08:12:00,6.0,4.0,-100.00,NW,323,11.0,16.0,90,0.01,,,-99.99,,2013-04-09 08:12:00,
2013-04-09 08:22:00,6.0,3.0,-100.00,NW,309,11.0,16.0,90,0.00,,,-99.99,,2013-04-09 08:22:00,
2013-04-09 08:32:00,5.0,3.0,-100.00,NW,313,11.0,16.0,90,0.01,,,-99.99,,2013-04-09 08:32:00,
2013-04-09 08:42:00,5.0,3.0,-100.00,NW,313,12.0,16.0,89,0.00,,,-99.99,,2013-04-09 08:42:00,
2013-04-09 08:52:00,5.0,2.0,-100.00,NW,312,12.0,20.0,89,0.00,,,-99.99,,2013-04-09 08:52:00,
2013-04-09 09:03:00,-999.0,-99.9,-100.00,NW,306,11.0,16.0,-999,-99.99,,,-99.99,,2013-04-09 09:03:00,
2013-04-09 09:12:00,4.0,2.0,-100.00,NW,312,10.0,15.0,89,0.00,,,-99.99,,2013-04-09 09:12:00,
2013-04-09 09:22:00,4.0,2.0,-100.00,NNW,328,11.0,14.0,89,0.01,,,-99.99,,2013-04-09 09:22:00,
2013-04-09 09:32:00,4.0,2.0,-100.00,NW,318,9.0,14.0,89,0.00,,,-99.99,,2013-04-09 09:32:00,
2013-04-09 09:43:00,4.0,2.0,-100.00,NW,309,6.0,9.0,89,0.00,,,-99.99,,2013-04-09 09:43:00,
2013-04-09 09:52:00,4.0,2.0,-100.00,NW,306,5.0,8.0,89,0.00,,,-99.99,,2013-04-09 09:52:00,
2013-04-09 10:03:00,4.0,2.0,-100.00,WNW,302,4.0,7.0,89,0.01,,,-99.99,,2013-04-09 10:03:00,
2013-04-09 10:12:00,4.0,2.0,-100.00,NW,306,6.0,9.0,89,0.01,,,-99.99,,2013-04-09 10:12:00,
2013-04-09 10:23:00,4.0,1.0,-100.00,NW,315,10.0,14.0,89,0.01,,,-99.99,,2013-04-09 10:23:00,
2013-04-09 10:32:00,4.0,1.0,-100.00,NNW,329,10.0,13.0,89,0.01,,,-99.99,,2013-04-09 10:32:00,
2013-04-09 10:42:00,4.0,1.0,-100.00,NNW,337,11.0,14.0,89,0.00,,,-99.99,,2013-04-09 10:42:00,
2013-04-09 10:52:00,4.0,1.0,-100.00,NNW,343,10.0,13.0,89,0.01,,,-99.99,,2013-04-09 10:52:00,
2013-04-09 11:02:00,4.0,1.0,-100.00,NNW,340,11.0,15.0,89,0.00,,,-99.99,,2013-04-09 11:02:00,
2013-04-09 11:12:00,4.0,1.0,-100.00,NNW,336,11.0,16.0,89,0.01,,,-99.99,,2013-04-09 11:12:00,
2013-04-09 11:22:00,4.0,1.0,-100.00,NNW,337,13.0,18.0,89,0.00,,,-99.99,,2013-04-09 11:22:00,
2013-04-09 11:32:00,4.0,1.0,-100.00,NNW,342,13.0,18.0,89,0.00,,,-99.99,,2013-04-09 11:32:00,
2013-04-09 11:42:00,4.0,1.0,-100.00,NNW,346,12.0,17.0,89,0.00,,,-99.99,,2013-04-09 11:42:00,
2013-04-09 11:52:00,4.0,1.0,-100.00,North,353,12.0,17.0,89,0.00,,,-99.99,,2013-04-09 11:52:00,
2013-04-09 12:02:00,4.0,1.0,-100.00,North,352,11.0,16.0,89,0.00,,,-99.99,,2013-04-09 12:02:00,
2013-04-09 12:12:00,4.0,1.0,-100.00,North,353,12.0,17.0,89,0.00,,,-99.99,,2013-04-09 12:12:00,
2013-04-09 12:22:00,4.0,1.0,-100.00,North,359,12.0,18.0,89,0.00,,,-99.99,,2013-04-09 12:22:00,
2013-04-09 12:32:00,4.0,2.0,-100.00,NNW,346,12.0,17.0,89,0.00,,,-99.99,,2013-04-09 12:32:00,
2013-04-09 12:42:00,4.0,1.0,-100.00,NNW,346,12.0,15.0,89,0.01,,,-99.99,,2013-04-09 12:42:00,
2013-04-09 12:52:00,4.0,1.0,-100.00,NNW,346,12.0,17.0,89,0.00,,,-99.99,,2013-04-09 12:52:00,
2013-04-09 13:02:00,4.0,1.0,-100.00,North,349,11.0,14.0,89,0.00,,,-99.99,,2013-04-09 13:02:00,
2013-04-09 13:12:00,4.0,1.0,-100.00,North,352,11.0,16.0,89,0.00,,,-99.99,,2013-04-09 13:12:00,
2013-04-09 13:22:00,4.0,1.0,-100.00,North,356,10.0,13.0,89,0.00,,,-99.99,,2013-04-09 13:22:00,
2013-04-09 13:32:00,4.0,1.0,-100.00,NNW,342,11.0,14.0,89,0.00,,,-99.99,,2013-04-09 13:32:00,
2013-04-09 13:42:00,4.0,1.0,-100.00,NNW,339,13.0,19.0,89,0.00,,,-99.99,,2013-04-09 13:42:00,
2013-04-09 13:52:00,4.0,1.0,-100.00,NNW,347,15.0,19.0,89,0.00,,,-99.99,,2013-04-09 13:52:00,
2013-04-09 14:03:00,4.0,1.0,-100.00,NNW,346,14.0,17.0,89,0.00,,,-99.99,,2013-04-09 14:03:00,
2013-04-09 14:12:00,4.0,2.0,-100.00,NNW,342,14.0,17.0,89,0.00,,,-99.99,,2013-04-09 14:12:00,
2013-04-09 14:22:00,5.0,2.0,-100.00,NNW,335,14.0,18.0,90,0.00,,,-99.99,,2013-04-09 14:22:00,
2013-04-09 14:32:00,5.0,2.0,-100.00,NNW,330,14.0,18.0,89,0.00,,,-99.99,,2013-04-09 14:32:00,
2013-04-09 14:42:00,5.0,2.0,-100.00,NNW,336,14.0,19.0,89,0.00,,,-99.99,,2013-04-09 14:42:00,
2013-04-09 14:52:00,5.0,3.0,-100.00,NNW,336,14.0,19.0,90,0.00,,,-99.99,,2013-04-09 14:52:00,
2013-04-09 15:02:00,5.0,3.0,-100.00,NNW,335,16.0,21.0,90,0.00,,,-99.99,,2013-04-09 15:02:00,
2013-04-09 15:13:00,-999.0,-99.9,-100.00,NNW,333,16.0,22.0,-999,-99.99,,,-99.99,,2013-04-09 15:13:00,
2013-04-09 15:22:00,5.0,3.0,-100.00,NNW,329,15.0,19.0,89,0.00,,,-99.99,,2013-04-09 15:22:00,
2013-04-09 15:33:00,5.0,2.0,-100.00,NNW,332,16.0,20.0,89,0.00,,,-99.99,,2013-04-09 15:33:00,
2013-04-09 15:43:00,5.0,3.0,-100.00,NNW,335,15.0,20.0,90,0.00,,,-99.99,,2013-04-09 15:43:00,
2013-04-09 15:53:00,7.0,4.0,-100.00,NNW,333,15.0,19.0,91,-99.99,,,-99.99,,2013-04-09 15:53:00,
2013-04-09 16:03:00,6.0,4.0,-100.00,NNW,332,15.0,19.0,89,0.00,,,-99.99,,2013-04-09 16:03:00,
2013-04-09 16:14:00,-999.0,-99.9,-100.00,NNW,330,16.0,19.0,-999,-99.99,,,-99.99,,2013-04-09 16:14:00,
2013-04-09 16:23:00,5.0,2.0,-100.00,NNW,328,16.0,22.0,89,0.00,,,-99.99,,2013-04-09 16:23:00,
2013-04-09 16:33:00,4.0,2.0,-100.00,NW,320,16.0,21.0,89,0.00,,,-99.99,,2013-04-09 16:33:00,
2013-04-09 16:42:00,4.0,2.0,-100.00,NW,323,16.0,21.0,89,0.01,,,-99.99,,2013-04-09 16:42:00,
2013-04-09 16:52:00,5.0,2.0,-100.00,NW,326,15.0,20.0,89,0.01,,,-99.99,,2013-04-09 16:52:00,
2013-04-09 17:12:00,5.0,2.0,-100.00,NW,325,14.0,19.0,89,-99.99,,,-99.99,,2013-04-09 17:12:00,
2013-04-09 17:23:00,5.0,2.0,-100.00,NW,323,14.0,19.0,89,0.01,,,-99.99,,2013-04-09 17:23:00,
2013-04-09 17:42:00,6.0,3.0,-100.00,NW,325,14.0,19.0,90,0.06,,,-99.99,,2013-04-09 17:42:00,
2013-04-09 17:53:00,8.0,6.0,-100.00,NNW,328,16.0,21.0,90,0.00,,,-99.99,,2013-04-09 17:53:00,
2013-04-09 18:02:00,8.0,6.0,-100.00,NNW,332,15.0,20.0,90,0.00,,,-99.99,,2013-04-09 18:02:00,
2013-04-09 18:12:00,8.0,6.0,-100.00,NNW,329,14.0,19.0,90,0.00,,,-99.99,,2013-04-09 18:12:00,
2013-04-09 18:22:00,8.0,5.0,-100.00,NNW,330,14.0,19.0,88,0.00,,,-99.99,,2013-04-09 18:22:00,
2013-04-09 18:32:00,8.0,5.0,-100.00,NNW,330,13.0,18.0,88,0.00,,,-99.99,,2013-04-09 18:32:00,
2013-04-09 18:52:00,8.0,5.0,-100.00,NNW,340,13.0,18.0,88,0.00,,,-99.99,,2013-04-09 18:52:00,
2013-04-09 19:02:00,8.0,5.0,-100.00,NNW,339,13.0,17.0,88,0.01,,,-99.99,,2013-04-09 19:02:00,
2013-04-09 19:12:00,8.0,5.0,-100.00,NNW,339,13.0,17.0,88,0.01,,,-99.99,,2013-04-09 19:12:00,
2013-04-09 19:22:00,8.0,4.0,-100.00,NNW,340,13.0,18.0,87,0.07,,,-99.99,,2013-04-09 19:22:00,
2013-04-09 19:32:00,9.0,6.0,-100.00,NNW,330,13.0,17.0,88,0.03,,,-99.99,,2013-04-09 19:32:00,
2013-04-09 19:41:00,9.0,6.0,-100.00,NNW,330,13.0,17.0,88,0.03,,,-99.99,,2013-04-09 19:41:00,
2013-04-09 19:52:00,9.0,6.0,-100.00,NNW,336,14.0,17.0,87,0.00,,,-99.99,,2013-04-09 19:52:00,
2013-04-09 20:02:00,9.0,6.0,-100.00,NNW,328,15.0,19.0,87,0.00,,,-99.99,,2013-04-09 20:02:00,
2013-04-09 20:12:00,8.0,5.0,-100.00,NNW,330,14.0,19.0,87,0.00,,,-99.99,,2013-04-09 20:12:00,
2013-04-09 20:22:00,8.0,5.0,-100.00,NNW,339,13.0,19.0,87,0.00,,,-99.99,,2013-04-09 20:22:00,
2013-04-09 20:33:00,8.0,5.0,-100.00,NNW,333,15.0,21.0,87,0.01,,,-99.99,,2013-04-09 20:33:00,
2013-04-09 21:02:00,9.0,6.0,-100.00,NNW,330,16.0,21.0,87,-99.99,,,-99.99,,2013-04-09 21:02:00,
2013-04-09 21:13:00,8.0,5.0,-100.00,NNW,328,16.0,21.0,86,0.00,,,-99.99,,2013-04-09 21:13:00,
2013-04-09 21:22:00,8.0,5.0,-100.00,NNW,328,16.0,21.0,86,0.00,,,-99.99,,2013-04-09 21:22:00,
2013-04-09 21:33:00,8.0,5.0,-100.00,NW,326,15.0,19.0,87,0.00,,,-99.99,,2013-04-09 21:33:00,
2013-04-09 21:42:00,8.0,5.0,-100.00,NW,326,15.0,19.0,87,0.00,,,-99.99,,2013-04-09 21:42:00,
2013-04-09 21:52:00,9.0,6.0,-100.00,NW,326,14.0,19.0,87,0.00,,,-99.99,,2013-04-09 21:52:00,
2013-04-09 22:03:00,9.0,6.0,-100.00,NW,323,14.0,19.0,88,0.00,,,-99.99,,2013-04-09 22:03:00,
2013-04-09 22:12:00,9.0,6.0,-100.00,NW,323,14.0,19.0,87,0.00,,,-99.99,,2013-04-09 22:12:00,
2013-04-09 22:23:00,9.0,6.0,-100.00,NW,323,14.0,20.0,87,0.00,,,-99.99,,2013-04-09 22:23:00,
2013-04-09 22:33:00,9.0,6.0,-100.00,NW,323,14.0,19.0,88,0.01,,,-99.99,,2013-04-09 22:33:00,
2013-04-09 22:42:00,9.0,6.0,-100.00,NW,323,14.0,18.0,87,0.01,,,-99.99,,2013-04-09 22:42:00,
2013-04-09 22:52:00,9.0,6.0,-100.00,NW,318,14.0,19.0,87,0.01,,,-99.99,,2013-04-09 22:52:00,
2013-04-09 23:03:00,9.0,6.0,-100.00,NW,313,15.0,19.0,87,0.00,,,-99.99,,2013-04-09 23:03:00,
2013-04-09 23:12:00,9.0,6.0,-100.00,NW,315,14.0,19.0,88,0.01,,,-99.99,,2013-04-09 23:12:00,
2013-04-09 23:22:00,8.0,6.0,-100.00,NW,312,13.0,17.0,88,0.03,,,-99.99,,2013-04-09 23:22:00,
2013-04-09 23:32:00,9.0,6.0,-100.00,NW,309,12.0,17.0,89,0.01,,,-99.99,,2013-04-09 23:32:00,
2013-04-09 23:42:00,8.0,6.0,-100.00,NW,311,11.0,16.0,88,0.04,,,-99.99,,2013-04-09 23:42:00,
2013-04-09 23:52:00,7.0,4.0,-100.00,North,7,9.0,12.0,88,0.03,,,-99.99,,2013-04-09 23:52:00,